sensor_id;sensor_type;location;lat;lon;timestamp;temperature;humidity
60473;DHT22;46318;52.716;6.444;2023-03-29T00:00:47;6.10;99.90
60473;DHT22;46318;52.716;6.444;2023-03-29T00:03:14;6.10;99.90
60473;DHT22;46318;52.716;6.444;2023-03-29T00:05:40;6.10;99.90
60473;DHT22;46318;52.716;6.444;2023-03-29T00:08:07;6.10;99.90
60473;DHT22;46318;52.716;6.444;2023-03-29T00:10:33;6.10;99.90
60473;DHT22;46318;52.716;6.444;2023-03-29T00:13:00;6.10;99.90
60473;DHT22;46318;52.716;6.444;2023-03-29T00:15:26;6.10;99.90
60473;DHT22;46318;52.716;6.444;2023-03-29T00:17:52;6.00;99.90
60473;DHT22;46318;52.716;6.444;2023-03-29T00:20:18;6.00;99.90
60473;DHT22;46318;52.716;6.444;2023-03-29T00:22:44;6.00;99.90
60473;DHT22;46318;52.716;6.444;2023-03-29T00:25:12;6.00;99.90
60473;DHT22;46318;52.716;6.444;2023-03-29T00:27:39;6.00;99.90
60473;DHT22;46318;52.716;6.444;2023-03-29T00:30:07;6.00;99.90
60473;DHT22;46318;52.716;6.444;2023-03-29T00:32:34;6.00;99.90
60473;DHT22;46318;52.716;6.444;2023-03-29T00:35:00;6.00;99.90
60473;DHT22;46318;52.716;6.444;2023-03-29T00:37:26;6.00;99.90
60473;DHT22;46318;52.716;6.444;2023-03-29T00:39:56;6.00;99.90
60473;DHT22;46318;52.716;6.444;2023-03-29T00:42:22;6.00;99.90
60473;DHT22;46318;52.716;6.444;2023-03-29T00:45:03;5.90;99.90
60473;DHT22;46318;52.716;6.444;2023-03-29T00:47:39;5.90;99.90
60473;DHT22;46318;52.716;6.444;2023-03-29T00:50:14;5.90;99.90
60473;DHT22;46318;52.716;6.444;2023-03-29T00:52:50;5.90;99.90
60473;DHT22;46318;52.716;6.444;2023-03-29T00:55:21;5.90;99.90
60473;DHT22;46318;52.716;6.444;2023-03-29T00:57:49;5.90;99.90
60473;DHT22;46318;52.716;6.444;2023-03-29T01:00:18;5.90;99.90
60473;DHT22;46318;52.716;6.444;2023-03-29T01:02:52;5.90;99.90
60473;DHT22;46318;52.716;6.444;2023-03-29T01:05:28;5.90;99.90
60473;DHT22;46318;52.716;6.444;2023-03-29T01:08:02;5.90;99.90
60473;DHT22;46318;52.716;6.444;2023-03-29T01:10:52;5.90;99.90
60473;DHT22;46318;52.716;6.444;2023-03-29T01:13:32;5.90;99.90
60473;DHT22;46318;52.716;6.444;2023-03-29T01:16:02;5.90;99.90
60473;DHT22;46318;52.716;6.444;2023-03-29T01:18:28;5.90;99.90
60473;DHT22;46318;52.716;6.444;2023-03-29T01:21:19;5.90;99.90
60473;DHT22;46318;52.716;6.444;2023-03-29T01:24:13;5.90;99.90
60473;DHT22;46318;52.716;6.444;2023-03-29T01:29:38;5.80;99.90
60473;DHT22;46318;52.716;6.444;2023-03-29T01:35:43;5.80;99.90
60473;DHT22;46318;52.716;6.444;2023-03-29T01:38:24;5.80;99.90
60473;DHT22;46318;52.716;6.444;2023-03-29T01:41:05;5.90;99.90
60473;DHT22;46318;52.716;6.444;2023-03-29T01:43:38;5.80;99.90
60473;DHT22;46318;52.716;6.444;2023-03-29T01:46:47;5.80;99.90
60473;DHT22;46318;52.716;6.444;2023-03-29T01:49:25;5.90;99.90
60473;DHT22;46318;52.716;6.444;2023-03-29T01:52:15;5.80;99.90
60473;DHT22;46318;52.716;6.444;2023-03-29T01:54:51;5.90;99.90
60473;DHT22;46318;52.716;6.444;2023-03-29T01:57:22;5.80;99.90
60473;DHT22;46318;52.716;6.444;2023-03-29T01:59:51;5.90;99.90
60473;DHT22;46318;52.716;6.444;2023-03-29T02:02:18;5.80;99.90
60473;DHT22;46318;52.716;6.444;2023-03-29T02:04:49;5.80;99.90
60473;DHT22;46318;52.716;6.444;2023-03-29T02:07:20;5.80;99.90
60473;DHT22;46318;52.716;6.444;2023-03-29T02:09:50;5.90;99.90
60473;DHT22;46318;52.716;6.444;2023-03-29T02:12:18;5.80;99.90
60473;DHT22;46318;52.716;6.444;2023-03-29T02:14:45;5.80;99.90
60473;DHT22;46318;52.716;6.444;2023-03-29T02:17:19;5.80;99.90
60473;DHT22;46318;52.716;6.444;2023-03-29T02:19:48;5.80;99.90
60473;DHT22;46318;52.716;6.444;2023-03-29T02:22:28;5.80;99.90
60473;DHT22;46318;52.716;6.444;2023-03-29T02:25:02;5.80;99.90
60473;DHT22;46318;52.716;6.444;2023-03-29T02:27:31;5.80;99.90
60473;DHT22;46318;52.716;6.444;2023-03-29T02:29:57;5.80;99.90
60473;DHT22;46318;52.716;6.444;2023-03-29T02:32:45;5.80;99.90
60473;DHT22;46318;52.716;6.444;2023-03-29T02:35:36;5.80;99.90
60473;DHT22;46318;52.716;6.444;2023-03-29T02:38:07;5.80;99.90
60473;DHT22;46318;52.716;6.444;2023-03-29T02:40:37;5.80;99.90
60473;DHT22;46318;52.716;6.444;2023-03-29T02:43:04;5.80;99.90
60473;DHT22;46318;52.716;6.444;2023-03-29T02:45:31;5.80;99.90
60473;DHT22;46318;52.716;6.444;2023-03-29T02:48:02;5.80;99.90
60473;DHT22;46318;52.716;6.444;2023-03-29T02:50:36;5.80;99.90
60473;DHT22;46318;52.716;6.444;2023-03-29T02:53:15;5.80;99.90
60473;DHT22;46318;52.716;6.444;2023-03-29T02:55:47;5.80;99.90
60473;DHT22;46318;52.716;6.444;2023-03-29T02:58:14;5.80;99.90
60473;DHT22;46318;52.716;6.444;2023-03-29T03:00:44;5.80;99.90
60473;DHT22;46318;52.716;6.444;2023-03-29T03:03:12;5.80;99.90
60473;DHT22;46318;52.716;6.444;2023-03-29T03:05:40;5.80;99.90
60473;DHT22;46318;52.716;6.444;2023-03-29T03:08:06;5.80;99.90
60473;DHT22;46318;52.716;6.444;2023-03-29T03:10:33;5.80;99.90
60473;DHT22;46318;52.716;6.444;2023-03-29T03:13:00;5.80;99.90
60473;DHT22;46318;52.716;6.444;2023-03-29T03:15:26;5.80;99.90
60473;DHT22;46318;52.716;6.444;2023-03-29T03:17:53;5.80;99.90
60473;DHT22;46318;52.716;6.444;2023-03-29T03:20:19;5.80;99.90
60473;DHT22;46318;52.716;6.444;2023-03-29T03:22:47;5.80;99.90
60473;DHT22;46318;52.716;6.444;2023-03-29T03:25:18;5.80;99.90
60473;DHT22;46318;52.716;6.444;2023-03-29T03:27:49;5.80;99.90
60473;DHT22;46318;52.716;6.444;2023-03-29T03:30:15;5.80;99.90
60473;DHT22;46318;52.716;6.444;2023-03-29T03:32:42;5.80;99.90
60473;DHT22;46318;52.716;6.444;2023-03-29T03:35:11;5.80;99.90
60473;DHT22;46318;52.716;6.444;2023-03-29T03:37:37;5.80;99.90
60473;DHT22;46318;52.716;6.444;2023-03-29T03:40:05;5.80;99.90
60473;DHT22;46318;52.716;6.444;2023-03-29T03:42:39;5.80;99.90
60473;DHT22;46318;52.716;6.444;2023-03-29T03:45:06;5.80;99.90
60473;DHT22;46318;52.716;6.444;2023-03-29T03:47:34;5.80;99.90
60473;DHT22;46318;52.716;6.444;2023-03-29T03:50:02;5.80;99.90
60473;DHT22;46318;52.716;6.444;2023-03-29T03:52:29;5.80;99.90
60473;DHT22;46318;52.716;6.444;2023-03-29T03:54:54;5.80;99.90
60473;DHT22;46318;52.716;6.444;2023-03-29T03:57:20;5.80;99.90
60473;DHT22;46318;52.716;6.444;2023-03-29T03:59:47;5.80;99.90
60473;DHT22;46318;52.716;6.444;2023-03-29T04:02:13;5.80;99.90
60473;DHT22;46318;52.716;6.444;2023-03-29T04:04:40;5.80;99.90
60473;DHT22;46318;52.716;6.444;2023-03-29T04:07:07;5.80;99.90
60473;DHT22;46318;52.716;6.444;2023-03-29T04:09:33;5.80;99.90
60473;DHT22;46318;52.716;6.444;2023-03-29T04:11:59;5.80;99.90
60473;DHT22;46318;52.716;6.444;2023-03-29T04:14:26;5.80;99.90
60473;DHT22;46318;52.716;6.444;2023-03-29T04:16:55;5.80;99.90
60473;DHT22;46318;52.716;6.444;2023-03-29T04:19:21;5.80;99.90
60473;DHT22;46318;52.716;6.444;2023-03-29T04:21:47;5.80;99.90
60473;DHT22;46318;52.716;6.444;2023-03-29T04:24:15;5.80;99.90
60473;DHT22;46318;52.716;6.444;2023-03-29T04:26:42;5.80;99.90
60473;DHT22;46318;52.716;6.444;2023-03-29T04:29:08;5.80;99.90
60473;DHT22;46318;52.716;6.444;2023-03-29T04:31:34;5.80;99.90
60473;DHT22;46318;52.716;6.444;2023-03-29T04:34:00;5.80;99.90
60473;DHT22;46318;52.716;6.444;2023-03-29T04:36:26;5.80;99.90
60473;DHT22;46318;52.716;6.444;2023-03-29T04:38:51;5.80;99.90
60473;DHT22;46318;52.716;6.444;2023-03-29T04:41:21;5.90;99.90
60473;DHT22;46318;52.716;6.444;2023-03-29T04:43:46;5.90;99.90
60473;DHT22;46318;52.716;6.444;2023-03-29T04:46:13;5.90;99.90
60473;DHT22;46318;52.716;6.444;2023-03-29T04:48:40;5.90;99.90
60473;DHT22;46318;52.716;6.444;2023-03-29T04:51:06;5.90;99.90
60473;DHT22;46318;52.716;6.444;2023-03-29T04:53:32;5.90;99.90
60473;DHT22;46318;52.716;6.444;2023-03-29T04:55:58;5.90;99.90
60473;DHT22;46318;52.716;6.444;2023-03-29T04:58:25;5.90;99.90
60473;DHT22;46318;52.716;6.444;2023-03-29T05:00:54;5.90;99.90
60473;DHT22;46318;52.716;6.444;2023-03-29T05:03:22;5.90;99.90
60473;DHT22;46318;52.716;6.444;2023-03-29T05:05:49;5.90;99.90
60473;DHT22;46318;52.716;6.444;2023-03-29T05:08:15;5.90;99.90
60473;DHT22;46318;52.716;6.444;2023-03-29T05:10:42;5.90;99.90
60473;DHT22;46318;52.716;6.444;2023-03-29T05:13:09;5.90;99.90
60473;DHT22;46318;52.716;6.444;2023-03-29T05:15:35;5.90;99.90
60473;DHT22;46318;52.716;6.444;2023-03-29T05:18:02;5.90;99.90
60473;DHT22;46318;52.716;6.444;2023-03-29T05:20:28;5.90;99.90
60473;DHT22;46318;52.716;6.444;2023-03-29T05:22:54;5.90;99.90
60473;DHT22;46318;52.716;6.444;2023-03-29T05:25:21;5.90;99.90
60473;DHT22;46318;52.716;6.444;2023-03-29T05:27:47;5.90;99.90
60473;DHT22;46318;52.716;6.444;2023-03-29T05:30:13;5.90;99.90
60473;DHT22;46318;52.716;6.444;2023-03-29T05:32:40;5.90;99.90
60473;DHT22;46318;52.716;6.444;2023-03-29T05:35:07;5.90;99.90
60473;DHT22;46318;52.716;6.444;2023-03-29T05:37:34;5.90;99.90
60473;DHT22;46318;52.716;6.444;2023-03-29T05:40:00;5.90;99.90
60473;DHT22;46318;52.716;6.444;2023-03-29T05:42:26;5.90;99.90
60473;DHT22;46318;52.716;6.444;2023-03-29T05:44:52;5.90;99.90
60473;DHT22;46318;52.716;6.444;2023-03-29T05:47:19;5.90;99.90
60473;DHT22;46318;52.716;6.444;2023-03-29T05:49:45;5.90;99.90
60473;DHT22;46318;52.716;6.444;2023-03-29T05:52:11;5.90;99.90
60473;DHT22;46318;52.716;6.444;2023-03-29T05:54:38;5.90;99.90
60473;DHT22;46318;52.716;6.444;2023-03-29T05:57:04;5.90;99.90
60473;DHT22;46318;52.716;6.444;2023-03-29T05:59:30;5.90;99.90
60473;DHT22;46318;52.716;6.444;2023-03-29T06:01:57;5.90;99.90
60473;DHT22;46318;52.716;6.444;2023-03-29T06:04:25;5.90;99.90
60473;DHT22;46318;52.716;6.444;2023-03-29T06:06:51;5.90;99.90
60473;DHT22;46318;52.716;6.444;2023-03-29T06:09:19;5.90;99.90
60473;DHT22;46318;52.716;6.444;2023-03-29T06:11:45;6.00;99.90
60473;DHT22;46318;52.716;6.444;2023-03-29T06:14:12;5.90;99.90
60473;DHT22;46318;52.716;6.444;2023-03-29T06:16:38;5.90;99.90
60473;DHT22;46318;52.716;6.444;2023-03-29T06:19:05;6.00;99.90
60473;DHT22;46318;52.716;6.444;2023-03-29T06:21:32;6.00;99.90
60473;DHT22;46318;52.716;6.444;2023-03-29T06:23:58;6.00;99.90
60473;DHT22;46318;52.716;6.444;2023-03-29T06:26:24;6.00;99.90
60473;DHT22;46318;52.716;6.444;2023-03-29T06:28:52;6.00;99.90
60473;DHT22;46318;52.716;6.444;2023-03-29T06:31:18;6.00;99.90
60473;DHT22;46318;52.716;6.444;2023-03-29T06:33:46;6.10;99.90
60473;DHT22;46318;52.716;6.444;2023-03-29T06:36:12;6.10;99.90
60473;DHT22;46318;52.716;6.444;2023-03-29T06:38:41;6.10;99.90
60473;DHT22;46318;52.716;6.444;2023-03-29T06:41:09;6.10;99.90
60473;DHT22;46318;52.716;6.444;2023-03-29T06:43:37;6.10;99.90
60473;DHT22;46318;52.716;6.444;2023-03-29T06:46:03;6.10;99.90
60473;DHT22;46318;52.716;6.444;2023-03-29T06:48:36;6.10;99.90
60473;DHT22;46318;52.716;6.444;2023-03-29T06:51:04;6.10;99.90
60473;DHT22;46318;52.716;6.444;2023-03-29T06:53:30;6.20;99.90
60473;DHT22;46318;52.716;6.444;2023-03-29T06:55:56;6.20;99.90
60473;DHT22;46318;52.716;6.444;2023-03-29T06:58:22;6.20;99.90
60473;DHT22;46318;52.716;6.444;2023-03-29T07:00:48;6.30;99.90
60473;DHT22;46318;52.716;6.444;2023-03-29T07:03:14;6.30;99.90
60473;DHT22;46318;52.716;6.444;2023-03-29T07:05:46;6.30;99.90
60473;DHT22;46318;52.716;6.444;2023-03-29T07:08:12;6.30;99.90
60473;DHT22;46318;52.716;6.444;2023-03-29T07:10:43;6.30;99.90
60473;DHT22;46318;52.716;6.444;2023-03-29T07:13:10;6.30;99.90
60473;DHT22;46318;52.716;6.444;2023-03-29T07:15:38;6.40;99.90
60473;DHT22;46318;52.716;6.444;2023-03-29T07:18:07;6.40;99.90
60473;DHT22;46318;52.716;6.444;2023-03-29T07:20:33;6.40;99.90
60473;DHT22;46318;52.716;6.444;2023-03-29T07:22:59;6.40;99.90
60473;DHT22;46318;52.716;6.444;2023-03-29T07:25:26;6.40;99.90
60473;DHT22;46318;52.716;6.444;2023-03-29T07:27:52;6.50;99.90
60473;DHT22;46318;52.716;6.444;2023-03-29T07:30:22;6.50;99.90
60473;DHT22;46318;52.716;6.444;2023-03-29T07:32:50;6.50;99.90
60473;DHT22;46318;52.716;6.444;2023-03-29T07:35:17;6.50;99.90
60473;DHT22;46318;52.716;6.444;2023-03-29T07:37:44;6.50;99.90
60473;DHT22;46318;52.716;6.444;2023-03-29T07:40:13;6.60;99.90
60473;DHT22;46318;52.716;6.444;2023-03-29T07:42:47;6.60;99.90
60473;DHT22;46318;52.716;6.444;2023-03-29T07:45:17;6.60;99.90
60473;DHT22;46318;52.716;6.444;2023-03-29T07:47:48;6.60;99.90
60473;DHT22;46318;52.716;6.444;2023-03-29T07:50:16;6.70;99.90
60473;DHT22;46318;52.716;6.444;2023-03-29T07:52:42;6.70;99.90
60473;DHT22;46318;52.716;6.444;2023-03-29T07:55:10;6.70;99.90
60473;DHT22;46318;52.716;6.444;2023-03-29T07:57:38;6.70;99.90
60473;DHT22;46318;52.716;6.444;2023-03-29T08:00:06;6.80;99.90
60473;DHT22;46318;52.716;6.444;2023-03-29T08:02:51;6.80;99.90
60473;DHT22;46318;52.716;6.444;2023-03-29T08:05:18;6.80;99.90
60473;DHT22;46318;52.716;6.444;2023-03-29T08:07:45;6.90;99.90
60473;DHT22;46318;52.716;6.444;2023-03-29T08:10:14;6.90;99.90
60473;DHT22;46318;52.716;6.444;2023-03-29T08:12:45;6.90;99.90
60473;DHT22;46318;52.716;6.444;2023-03-29T08:15:12;7.00;99.90
60473;DHT22;46318;52.716;6.444;2023-03-29T08:17:39;7.00;99.90
60473;DHT22;46318;52.716;6.444;2023-03-29T08:20:08;7.00;99.90
60473;DHT22;46318;52.716;6.444;2023-03-29T08:22:37;7.10;99.90
60473;DHT22;46318;52.716;6.444;2023-03-29T08:25:04;7.10;99.90
60473;DHT22;46318;52.716;6.444;2023-03-29T08:27:31;7.10;99.90
60473;DHT22;46318;52.716;6.444;2023-03-29T08:29:57;7.10;99.90
60473;DHT22;46318;52.716;6.444;2023-03-29T08:32:23;7.20;99.90
60473;DHT22;46318;52.716;6.444;2023-03-29T08:34:49;7.20;99.90
60473;DHT22;46318;52.716;6.444;2023-03-29T08:37:15;7.20;99.90
60473;DHT22;46318;52.716;6.444;2023-03-29T08:39:42;7.30;99.90
60473;DHT22;46318;52.716;6.444;2023-03-29T08:50:19;7.50;99.90
60473;DHT22;46318;52.716;6.444;2023-03-29T08:52:50;7.50;99.90
60473;DHT22;46318;52.716;6.444;2023-03-29T08:55:41;7.50;99.90
60473;DHT22;46318;52.716;6.444;2023-03-29T08:58:23;7.60;99.90
60473;DHT22;46318;52.716;6.444;2023-03-29T09:00:54;7.60;99.90
60473;DHT22;46318;52.716;6.444;2023-03-29T09:03:25;7.60;99.90
60473;DHT22;46318;52.716;6.444;2023-03-29T09:06:11;7.70;99.90
60473;DHT22;46318;52.716;6.444;2023-03-29T09:08:47;7.70;99.90
60473;DHT22;46318;52.716;6.444;2023-03-29T09:16:48;7.80;99.90
60473;DHT22;46318;52.716;6.444;2023-03-29T09:19:51;7.90;99.90
60473;DHT22;46318;52.716;6.444;2023-03-29T09:22:41;7.90;99.90
60473;DHT22;46318;52.716;6.444;2023-03-29T09:28:17;8.00;99.90
60473;DHT22;46318;52.716;6.444;2023-03-29T09:31:05;8.10;99.90
60473;DHT22;46318;52.716;6.444;2023-03-29T09:34:07;8.20;99.90
60473;DHT22;46318;52.716;6.444;2023-03-29T09:39:17;8.30;99.90
60473;DHT22;46318;52.716;6.444;2023-03-29T09:42:06;8.30;99.90
60473;DHT22;46318;52.716;6.444;2023-03-29T09:44:54;8.40;99.90
60473;DHT22;46318;52.716;6.444;2023-03-29T09:47:53;8.40;99.90
60473;DHT22;46318;52.716;6.444;2023-03-29T09:50:26;8.50;99.90
60473;DHT22;46318;52.716;6.444;2023-03-29T09:52:56;8.60;99.90
60473;DHT22;46318;52.716;6.444;2023-03-29T09:55:26;8.60;99.90
60473;DHT22;46318;52.716;6.444;2023-03-29T09:57:57;8.70;99.90
60473;DHT22;46318;52.716;6.444;2023-03-29T10:00:25;8.70;99.90
60473;DHT22;46318;52.716;6.444;2023-03-29T10:02:53;8.80;99.90
60473;DHT22;46318;52.716;6.444;2023-03-29T10:05:24;8.80;99.90
60473;DHT22;46318;52.716;6.444;2023-03-29T10:07:53;8.90;99.90
60473;DHT22;46318;52.716;6.444;2023-03-29T10:10:33;9.00;99.90
60473;DHT22;46318;52.716;6.444;2023-03-29T10:13:20;9.00;99.90
60473;DHT22;46318;52.716;6.444;2023-03-29T10:16:05;9.10;99.90
60473;DHT22;46318;52.716;6.444;2023-03-29T10:18:42;9.10;99.90
60473;DHT22;46318;52.716;6.444;2023-03-29T10:21:12;9.20;99.90
60473;DHT22;46318;52.716;6.444;2023-03-29T10:23:42;9.30;99.90
60473;DHT22;46318;52.716;6.444;2023-03-29T10:26:38;9.30;99.90
60473;DHT22;46318;52.716;6.444;2023-03-29T10:29:05;9.40;99.90
60473;DHT22;46318;52.716;6.444;2023-03-29T10:31:32;9.50;99.90
60473;DHT22;46318;52.716;6.444;2023-03-29T10:34:04;9.60;99.90
60473;DHT22;46318;52.716;6.444;2023-03-29T10:36:31;9.70;99.90
60473;DHT22;46318;52.716;6.444;2023-03-29T10:38:58;9.70;99.90
60473;DHT22;46318;52.716;6.444;2023-03-29T10:41:25;9.80;99.90
60473;DHT22;46318;52.716;6.444;2023-03-29T10:43:53;9.90;99.90
60473;DHT22;46318;52.716;6.444;2023-03-29T10:46:29;10.00;99.90
60473;DHT22;46318;52.716;6.444;2023-03-29T10:49:16;10.10;99.90
60473;DHT22;46318;52.716;6.444;2023-03-29T10:51:45;10.20;99.90
60473;DHT22;46318;52.716;6.444;2023-03-29T10:54:15;10.30;99.90
60473;DHT22;46318;52.716;6.444;2023-03-29T10:56:57;10.40;99.90
60473;DHT22;46318;52.716;6.444;2023-03-29T10:59:28;10.50;99.90
60473;DHT22;46318;52.716;6.444;2023-03-29T11:11:28;10.80;99.90
60473;DHT22;46318;52.716;6.444;2023-03-29T11:14:20;10.80;99.90
60473;DHT22;46318;52.716;6.444;2023-03-29T11:17:17;10.90;99.90
60473;DHT22;46318;52.716;6.444;2023-03-29T11:23:10;11.10;99.90
60473;DHT22;46318;52.716;6.444;2023-03-29T11:26:03;11.20;99.90
60473;DHT22;46318;52.716;6.444;2023-03-29T11:40:54;11.60;99.90
60473;DHT22;46318;52.716;6.444;2023-03-29T11:43:39;11.70;99.90
60473;DHT22;46318;52.716;6.444;2023-03-29T11:46:17;11.70;99.90
60473;DHT22;46318;52.716;6.444;2023-03-29T11:48:51;11.80;99.90
60473;DHT22;46318;52.716;6.444;2023-03-29T11:51:24;11.80;99.90
60473;DHT22;46318;52.716;6.444;2023-03-29T11:53:59;11.90;99.90
60473;DHT22;46318;52.716;6.444;2023-03-29T11:56:44;12.00;99.90
60473;DHT22;46318;52.716;6.444;2023-03-29T11:59:57;12.00;99.90
60473;DHT22;46318;52.716;6.444;2023-03-29T12:02:45;12.10;99.90
60473;DHT22;46318;52.716;6.444;2023-03-29T12:05:49;12.10;99.90
60473;DHT22;46318;52.716;6.444;2023-03-29T12:08:30;12.20;99.90
60473;DHT22;46318;52.716;6.444;2023-03-29T12:11:13;12.20;99.90
60473;DHT22;46318;52.716;6.444;2023-03-29T12:13:48;12.30;99.90
60473;DHT22;46318;52.716;6.444;2023-03-29T12:16:29;12.30;99.90
60473;DHT22;46318;52.716;6.444;2023-03-29T12:19:04;12.40;99.90
60473;DHT22;46318;52.716;6.444;2023-03-29T12:21:37;12.40;99.90
60473;DHT22;46318;52.716;6.444;2023-03-29T12:24:08;12.50;99.90
60473;DHT22;46318;52.716;6.444;2023-03-29T12:30:15;12.60;99.90
60473;DHT22;46318;52.716;6.444;2023-03-29T12:36:12;12.80;99.90
60473;DHT22;46318;52.716;6.444;2023-03-29T12:38:47;12.90;99.90
60473;DHT22;46318;52.716;6.444;2023-03-29T12:41:19;12.90;99.90
60473;DHT22;46318;52.716;6.444;2023-03-29T12:43:46;13.00;99.90
60473;DHT22;46318;52.716;6.444;2023-03-29T12:46:24;13.00;99.90
60473;DHT22;46318;52.716;6.444;2023-03-29T12:48:55;13.10;99.90
60473;DHT22;46318;52.716;6.444;2023-03-29T12:51:29;13.10;99.90
60473;DHT22;46318;52.716;6.444;2023-03-29T12:54:18;13.20;99.90
60473;DHT22;46318;52.716;6.444;2023-03-29T12:56:54;13.30;99.90
60473;DHT22;46318;52.716;6.444;2023-03-29T12:59:43;13.30;99.90
60473;DHT22;46318;52.716;6.444;2023-03-29T13:10:08;13.50;99.90
60473;DHT22;46318;52.716;6.444;2023-03-29T13:12:43;13.50;99.90
60473;DHT22;46318;52.716;6.444;2023-03-29T13:18:01;13.60;99.90
60473;DHT22;46318;52.716;6.444;2023-03-29T13:20:46;13.60;99.90
60473;DHT22;46318;52.716;6.444;2023-03-29T13:27:02;13.50;99.90
60473;DHT22;46318;52.716;6.444;2023-03-29T13:30:57;13.50;99.90
60473;DHT22;46318;52.716;6.444;2023-03-29T13:33:16;13.50;99.90
60473;DHT22;46318;52.716;6.444;2023-03-29T13:38:48;13.50;99.90
60473;DHT22;46318;52.716;6.444;2023-03-29T13:41:25;13.60;99.90
60473;DHT22;46318;52.716;6.444;2023-03-29T13:44:15;13.60;99.90
60473;DHT22;46318;52.716;6.444;2023-03-29T13:46:48;13.70;99.90
60473;DHT22;46318;52.716;6.444;2023-03-29T13:49:28;13.80;99.90
60473;DHT22;46318;52.716;6.444;2023-03-29T13:57:52;14.00;99.90
60473;DHT22;46318;52.716;6.444;2023-03-29T14:00:31;14.00;99.90
60473;DHT22;46318;52.716;6.444;2023-03-29T14:03:06;14.00;99.90
60473;DHT22;46318;52.716;6.444;2023-03-29T14:05:41;14.00;99.90
60473;DHT22;46318;52.716;6.444;2023-03-29T14:08:22;14.00;99.90
60473;DHT22;46318;52.716;6.444;2023-03-29T14:10:59;14.00;99.90
60473;DHT22;46318;52.716;6.444;2023-03-29T14:13:28;14.00;99.90
60473;DHT22;46318;52.716;6.444;2023-03-29T14:16:05;14.00;99.90
60473;DHT22;46318;52.716;6.444;2023-03-29T14:18:39;14.00;99.90
60473;DHT22;46318;52.716;6.444;2023-03-29T14:21:06;14.10;99.90
60473;DHT22;46318;52.716;6.444;2023-03-29T14:23:35;14.20;99.90
60473;DHT22;46318;52.716;6.444;2023-03-29T14:26:13;14.20;99.90
60473;DHT22;46318;52.716;6.444;2023-03-29T14:28:48;14.30;99.90
60473;DHT22;46318;52.716;6.444;2023-03-29T14:31:29;14.30;99.90
60473;DHT22;46318;52.716;6.444;2023-03-29T14:33:59;14.30;99.90
60473;DHT22;46318;52.716;6.444;2023-03-29T14:36:27;14.30;99.90
60473;DHT22;46318;52.716;6.444;2023-03-29T14:41:32;14.30;99.90
60473;DHT22;46318;52.716;6.444;2023-03-29T14:44:00;14.30;99.90
60473;DHT22;46318;52.716;6.444;2023-03-29T14:46:28;14.30;99.90
60473;DHT22;46318;52.716;6.444;2023-03-29T14:48:54;14.30;99.90
60473;DHT22;46318;52.716;6.444;2023-03-29T14:51:22;14.20;99.90
60473;DHT22;46318;52.716;6.444;2023-03-29T14:53:53;14.20;99.90
60473;DHT22;46318;52.716;6.444;2023-03-29T14:56:20;14.20;99.90
60473;DHT22;46318;52.716;6.444;2023-03-29T14:58:53;14.20;99.90
60473;DHT22;46318;52.716;6.444;2023-03-29T15:01:21;14.20;99.90
60473;DHT22;46318;52.716;6.444;2023-03-29T15:03:53;14.20;99.90
60473;DHT22;46318;52.716;6.444;2023-03-29T15:06:22;14.20;99.90
60473;DHT22;46318;52.716;6.444;2023-03-29T15:08:49;14.20;99.90
60473;DHT22;46318;52.716;6.444;2023-03-29T15:11:21;14.20;99.90
60473;DHT22;46318;52.716;6.444;2023-03-29T15:13:51;14.20;99.90
60473;DHT22;46318;52.716;6.444;2023-03-29T15:16:28;14.20;99.90
60473;DHT22;46318;52.716;6.444;2023-03-29T15:18:55;14.10;99.90
60473;DHT22;46318;52.716;6.444;2023-03-29T15:21:22;14.10;99.90
60473;DHT22;46318;52.716;6.444;2023-03-29T15:23:56;14.10;99.90
60473;DHT22;46318;52.716;6.444;2023-03-29T15:26:34;14.10;99.90
60473;DHT22;46318;52.716;6.444;2023-03-29T15:29:14;14.10;99.90
60473;DHT22;46318;52.716;6.444;2023-03-29T15:31:55;14.10;99.90
60473;DHT22;46318;52.716;6.444;2023-03-29T15:34:26;14.10;99.90
60473;DHT22;46318;52.716;6.444;2023-03-29T15:36:55;14.10;99.90
60473;DHT22;46318;52.716;6.444;2023-03-29T15:39:22;14.00;99.90
60473;DHT22;46318;52.716;6.444;2023-03-29T15:41:50;14.00;99.90
60473;DHT22;46318;52.716;6.444;2023-03-29T15:44:28;14.00;99.90
60473;DHT22;46318;52.716;6.444;2023-03-29T15:46:57;14.00;99.90
60473;DHT22;46318;52.716;6.444;2023-03-29T15:49:24;14.00;99.90
60473;DHT22;46318;52.716;6.444;2023-03-29T15:51:51;14.00;99.90
60473;DHT22;46318;52.716;6.444;2023-03-29T15:54:21;13.90;99.90
60473;DHT22;46318;52.716;6.444;2023-03-29T15:56:54;13.90;99.90
60473;DHT22;46318;52.716;6.444;2023-03-29T15:59:24;13.90;99.90
60473;DHT22;46318;52.716;6.444;2023-03-29T16:01:50;13.90;99.90
60473;DHT22;46318;52.716;6.444;2023-03-29T16:04:18;13.90;99.90
60473;DHT22;46318;52.716;6.444;2023-03-29T16:06:47;13.90;99.90
60473;DHT22;46318;52.716;6.444;2023-03-29T16:09:15;13.80;99.90
60473;DHT22;46318;52.716;6.444;2023-03-29T16:11:42;13.80;99.90
60473;DHT22;46318;52.716;6.444;2023-03-29T16:14:19;13.80;99.90
60473;DHT22;46318;52.716;6.444;2023-03-29T16:16:53;13.80;99.90
60473;DHT22;46318;52.716;6.444;2023-03-29T16:19:23;13.80;99.90
60473;DHT22;46318;52.716;6.444;2023-03-29T16:21:50;13.70;99.90
60473;DHT22;46318;52.716;6.444;2023-03-29T16:24:20;13.70;99.90
60473;DHT22;46318;52.716;6.444;2023-03-29T16:26:48;13.60;99.90
60473;DHT22;46318;52.716;6.444;2023-03-29T16:29:15;13.60;99.90
60473;DHT22;46318;52.716;6.444;2023-03-29T16:31:42;13.50;99.90
60473;DHT22;46318;52.716;6.444;2023-03-29T16:34:12;13.50;99.90
60473;DHT22;46318;52.716;6.444;2023-03-29T16:36:39;13.50;99.90
60473;DHT22;46318;52.716;6.444;2023-03-29T16:39:05;13.50;99.90
60473;DHT22;46318;52.716;6.444;2023-03-29T16:41:31;13.40;99.90
60473;DHT22;46318;52.716;6.444;2023-03-29T16:43:58;13.40;99.90
60473;DHT22;46318;52.716;6.444;2023-03-29T16:46:24;13.40;99.90
60473;DHT22;46318;52.716;6.444;2023-03-29T16:48:50;13.40;99.90
60473;DHT22;46318;52.716;6.444;2023-03-29T16:51:18;13.40;99.90
60473;DHT22;46318;52.716;6.444;2023-03-29T16:53:45;13.40;99.90
60473;DHT22;46318;52.716;6.444;2023-03-29T16:56:16;13.40;99.90
60473;DHT22;46318;52.716;6.444;2023-03-29T16:58:43;13.30;99.90
60473;DHT22;46318;52.716;6.444;2023-03-29T17:01:13;13.40;99.90
60473;DHT22;46318;52.716;6.444;2023-03-29T17:03:40;13.30;99.90
60473;DHT22;46318;52.716;6.444;2023-03-29T17:06:08;13.30;99.90
60473;DHT22;46318;52.716;6.444;2023-03-29T17:08:35;13.30;99.90
60473;DHT22;46318;52.716;6.444;2023-03-29T17:11:02;13.30;99.90
60473;DHT22;46318;52.716;6.444;2023-03-29T17:13:28;13.20;99.90
60473;DHT22;46318;52.716;6.444;2023-03-29T17:15:55;13.20;99.90
60473;DHT22;46318;52.716;6.444;2023-03-29T17:18:23;13.20;99.90
60473;DHT22;46318;52.716;6.444;2023-03-29T17:20:52;13.10;99.90
60473;DHT22;46318;52.716;6.444;2023-03-29T17:23:21;13.20;99.90
60473;DHT22;46318;52.716;6.444;2023-03-29T17:25:47;13.10;99.90
60473;DHT22;46318;52.716;6.444;2023-03-29T17:28:13;13.10;99.90
60473;DHT22;46318;52.716;6.444;2023-03-29T17:30:39;13.10;99.90